Time;durP1;ratioP1;P1;durP2;ratioP2;P2;SDS_P1;SDS_P2;PMS_P1;PMS_P2;Temp;Humidity;BMP_temperature;BMP_pressure;BME280_temperature;BME280_humidity;BME280_pressure;Samples;Min_cycle;Max_cycle;Signal;HPM_P1;HPM_P2
2023/01/13 00:00:14;;;;;;;3.88;0.88;;;11.10;99.90;;;;;;4953820;29;20051;-77
2023/01/13 00:02:41;;;;;;;3.10;0.60;;;11.20;99.90;;;;;;4955287;28;20133;-76
2023/01/13 00:05:09;;;;;;;3.08;0.85;;;11.20;99.90;;;;;;4961724;28;20086;-77
2023/01/13 00:07:38;;;;;;;2.53;0.68;;;11.20;99.90;;;;;;4954855;28;20047;-76
2023/01/13 00:10:10;;;;;;;1.98;1.05;;;11.20;99.90;;;;;;4955066;28;20050;-76
2023/01/13 00:12:45;;;;;;;1.40;0.50;;;11.20;99.90;;;;;;4955194;28;20493;-76
2023/01/13 00:15:12;;;;;;;4.80;0.85;;;11.20;99.90;;;;;;4955209;28;20044;-76
2023/01/13 00:17:39;;;;;;;1.95;0.60;;;11.20;99.90;;;;;;4955015;28;20058;-77
2023/01/13 00:20:06;;;;;;;0.68;0.57;;;11.20;99.90;;;;;;4953166;29;20051;-76
2023/01/13 00:22:34;;;;;;;1.48;0.50;;;11.20;99.90;;;;;;4954200;28;20047;-77
2023/01/13 00:25:03;;;;;;;4.13;0.77;;;11.20;99.90;;;;;;4952810;29;20051;-77
2023/01/13 00:27:30;;;;;;;2.45;0.47;;;11.20;99.90;;;;;;4955015;29;20051;-77
2023/01/13 00:29:57;;;;;;;2.03;0.65;;;11.20;99.90;;;;;;4954990;28;20071;-77
2023/01/13 00:32:24;;;;;;;3.40;0.70;;;11.20;99.90;;;;;;4955018;28;20476;-76
2023/01/13 00:34:51;;;;;;;2.47;0.88;;;11.20;99.90;;;;;;4954429;28;20390;-76
2023/01/13 00:37:18;;;;;;;2.75;0.50;;;11.20;99.90;;;;;;4954688;29;20424;-77
2023/01/13 00:39:45;;;;;;;2.92;0.80;;;11.20;99.90;;;;;;4954372;28;20062;-76
2023/01/13 00:44:57;;;;;;;5.22;0.90;;;11.20;99.90;;;;;;4953684;28;20055;-76
2023/01/13 00:47:24;;;;;;;4.32;0.73;;;11.20;99.90;;;;;;4951785;29;20064;-76
2023/01/13 00:49:51;;;;;;;0.55;0.40;;;11.20;99.90;;;;;;4954123;28;20055;-76
2023/01/13 00:52:18;;;;;;;1.10;0.50;;;11.20;99.90;;;;;;4954520;28;20054;-76
2023/01/13 00:54:45;;;;;;;5.82;0.93;;;11.30;99.90;;;;;;4954152;28;20055;-77
2023/01/13 00:57:11;;;;;;;2.58;0.55;;;11.30;99.90;;;;;;4954214;28;20051;-76
2023/01/13 00:59:38;;;;;;;1.75;0.63;;;11.30;99.90;;;;;;4951365;29;20054;-76
2023/01/13 01:02:05;;;;;;;1.38;0.60;;;11.30;99.90;;;;;;4954351;28;20053;-77
2023/01/13 01:04:32;;;;;;;3.45;0.80;;;11.30;99.90;;;;;;4953673;28;20058;-76
2023/01/13 01:06:59;;;;;;;2.38;0.73;;;11.30;99.90;;;;;;4953912;28;20051;-76
2023/01/13 01:09:32;;;;;;;2.10;0.60;;;11.30;99.90;;;;;;4953786;28;20047;-76
2023/01/13 01:12:00;;;;;;;3.42;0.60;;;11.30;99.90;;;;;;4953928;28;20577;-76
2023/01/13 01:14:27;;;;;;;1.88;0.60;;;11.30;99.90;;;;;;4953451;28;20053;-77
2023/01/13 01:16:54;;;;;;;1.80;0.70;;;11.30;99.90;;;;;;4953789;28;20118;-76
2023/01/13 01:19:20;;;;;;;3.53;0.85;;;11.30;99.90;;;;;;4953669;28;20517;-77
2023/01/13 01:21:47;;;;;;;3.45;1.05;;;11.30;99.90;;;;;;4953791;28;20047;-76
2023/01/13 01:24:15;;;;;;;4.38;0.70;;;11.30;99.90;;;;;;4950929;29;20073;-76
2023/01/13 01:26:42;;;;;;;2.97;1.02;;;11.20;99.90;;;;;;4954421;28;20055;-76
2023/01/13 01:29:13;;;;;;;3.08;0.50;;;11.30;99.90;;;;;;4953695;28;20130;-76
2023/01/13 01:31:40;;;;;;;2.75;0.65;;;11.20;99.90;;;;;;4953804;28;20051;-76
2023/01/13 01:34:07;;;;;;;2.22;0.95;;;11.20;99.90;;;;;;4953505;28;20469;-77
2023/01/13 01:36:35;;;;;;;3.03;0.70;;;11.20;99.90;;;;;;4948684;29;20043;-76
2023/01/13 01:39:03;;;;;;;6.07;0.70;;;11.20;99.90;;;;;;4953767;28;20106;-77
2023/01/13 01:41:33;;;;;;;1.55;0.70;;;11.20;99.90;;;;;;4953489;28;20047;-76
2023/01/13 01:44:23;;;;;;;6.30;0.88;;;11.20;99.90;;;;;;4951247;29;20055;-77
2023/01/13 01:46:50;;;;;;;;;;;11.20;99.90;;;;;;4943309;28;20062;-77
2023/01/13 01:49:30;;;;;;;1.63;0.60;;;11.20;99.90;;;;;;4953446;28;20298;-76
2023/01/13 01:52:05;;;;;;;0.80;0.80;;;11.10;99.90;;;;;;4953198;28;20043;-76
2023/01/13 01:54:45;;;;;;;2.30;0.70;;;11.20;99.90;;;;;;4953267;28;20141;-76
2023/01/13 01:57:17;;;;;;;3.85;0.70;;;11.10;99.90;;;;;;4953109;29;20055;-77
2023/01/13 01:59:44;;;;;;;2.38;0.60;;;11.10;99.90;;;;;;4953325;28;20047;-76
2023/01/13 02:02:11;;;;;;;1.70;0.70;;;11.10;99.90;;;;;;4953403;28;20048;-76
2023/01/13 02:04:41;;;;;;;3.47;0.70;;;11.10;99.90;;;;;;4950671;29;20105;-77
2023/01/13 02:07:08;;;;;;;;;;;11.00;99.90;;;;;;4953668;28;20450;-76
2023/01/13 02:09:35;;;;;;;1.52;0.60;;;11.00;99.90;;;;;;4951730;29;19934;-77
2023/01/13 02:14:48;;;;;;;5.38;1.02;;;11.00;99.90;;;;;;4952553;29;20143;-76
2023/01/13 02:17:31;;;;;;;0.90;0.50;;;11.10;99.90;;;;;;4953375;28;20047;-77
2023/01/13 02:20:26;;;;;;;4.18;0.60;;;11.10;99.90;;;;;;4953379;28;20486;-76
2023/01/13 02:24:52;;;;;;;2.97;0.60;;;11.00;99.90;;;;;;4953055;28;20055;-77
2023/01/13 02:26:18;;;;;;;1.30;0.50;;;11.00;99.90;;;;;;4952731;29;20428;-76
2023/01/13 02:31:56;;;;;;;2.65;0.60;;;11.00;99.90;;;;;;4951500;29;20048;-77
2023/01/13 02:34:33;;;;;;;2.15;0.73;;;11.00;99.90;;;;;;4951374;29;20077;-76
2023/01/13 02:37:17;;;;;;;3.13;0.80;;;11.00;99.90;;;;;;4967080;28;20044;-76
2023/01/13 02:39:54;;;;;;;4.13;0.82;;;11.00;99.90;;;;;;4952705;29;20216;-76
2023/01/13 02:45:30;;;;;;;3.08;0.80;;;11.00;99.90;;;;;;4953677;28;20051;-78
2023/01/13 02:48:00;;;;;;;6.18;1.13;;;10.90;99.90;;;;;;4962787;28;20050;-76
2023/01/13 02:50:36;;;;;;;2.73;0.63;;;11.00;99.90;;;;;;4956565;28;20073;-76
2023/01/13 02:53:21;;;;;;;0.52;0.38;;;11.00;99.90;;;;;;4953415;29;20051;-76
2023/01/13 02:55:53;;;;;;;1.55;0.47;;;11.00;99.90;;;;;;4955904;29;20416;-76
2023/01/13 02:58:23;;;;;;;1.40;0.32;;;11.00;99.90;;;;;;4954999;29;20059;-76
2023/01/13 03:00:51;;;;;;;1.85;0.55;;;10.90;99.90;;;;;;4954737;29;20424;-76
2023/01/13 03:03:18;;;;;;;2.47;0.50;;;10.90;99.90;;;;;;4955921;28;20141;-78
2023/01/13 03:05:48;;;;;;;2.08;0.65;;;10.90;99.90;;;;;;4956146;29;20474;-76
2023/01/13 03:08:17;;;;;;;;;;;10.90;99.90;;;;;;4956842;29;20263;-77
2023/01/13 03:11:01;;;;;;;1.95;0.40;;;10.90;99.90;;;;;;4954899;29;19944;-77
2023/01/13 03:13:43;;;;;;;0.45;0.38;;;10.90;99.90;;;;;;4955751;28;20519;-76
2023/01/13 03:16:44;;;;;;;2.20;0.63;;;10.90;99.90;;;;;;4955898;29;20043;-77
2023/01/13 03:19:26;;;;;;;;;;;10.90;99.90;;;;;;4956662;29;20414;-76
2023/01/13 03:22:26;;;;;;;0.30;0.30;;;10.90;99.90;;;;;;4953960;29;19922;-77
2023/01/13 03:25:10;;;;;;;3.55;0.60;;;10.90;99.90;;;;;;4954943;29;20059;-76
2023/01/13 03:27:49;;;;;;;1.73;0.60;;;10.80;99.90;;;;;;4955052;29;20413;-76
2023/01/13 03:30:32;;;;;;;3.63;0.65;;;10.80;99.90;;;;;;4942985;29;20065;-77
2023/01/13 03:33:05;;;;;;;1.80;0.35;;;10.80;99.90;;;;;;4953422;29;20043;-76
2023/01/13 03:35:38;;;;;;;0.90;0.60;;;10.80;99.90;;;;;;4955623;28;20126;-76
2023/01/13 03:38:07;;;;;;;0.60;0.40;;;10.80;99.90;;;;;;4955867;28;20054;-77
2023/01/13 03:40:44;;;;;;;1.13;0.40;;;10.80;99.90;;;;;;4955639;28;20047;-77
2023/01/13 03:46:08;;;;;;;1.95;0.50;;;10.80;99.90;;;;;;4955809;29;20057;-77
2023/01/13 03:48:40;;;;;;;1.45;0.50;;;10.80;99.90;;;;;;4955639;28;20412;-76
2023/01/13 03:51:14;;;;;;;1.65;0.68;;;10.80;99.90;;;;;;4955542;28;20052;-77
2023/01/13 03:53:53;;;;;;;2.33;0.60;;;10.80;99.90;;;;;;4954262;29;20059;-77
2023/01/13 03:56:33;;;;;;;1.33;0.52;;;10.70;99.90;;;;;;4954289;28;20051;-77
2023/01/13 03:59:03;;;;;;;2.60;0.40;;;10.70;99.90;;;;;;4953355;29;20063;-76
2023/01/13 04:01:59;;;;;;;1.75;0.47;;;10.70;99.90;;;;;;4955429;29;20138;-77
2023/01/13 04:04:44;;;;;;;1.23;0.60;;;10.70;99.90;;;;;;4950567;29;20083;-76
2023/01/13 04:07:48;;;;;;;1.33;0.30;;;10.70;99.90;;;;;;4956127;28;20055;-76
2023/01/13 04:10:20;;;;;;;0.80;0.38;;;10.70;99.90;;;;;;4954150;29;20055;-76
2023/01/13 04:13:01;;;;;;;2.45;1.08;;;10.60;99.90;;;;;;4954872;28;20055;-77
2023/01/13 04:15:32;;;;;;;1.38;0.60;;;10.60;99.90;;;;;;4945077;29;20090;-77
2023/01/13 04:18:23;;;;;;;1.20;0.50;;;10.60;99.90;;;;;;4953663;29;20110;-77
2023/01/13 04:20:52;;;;;;;0.60;0.30;;;10.60;99.90;;;;;;4943606;29;20052;-77
2023/01/13 04:23:20;;;;;;;0.63;0.47;;;10.60;99.90;;;;;;4954645;28;20433;-77
2023/01/13 04:25:47;;;;;;;1.40;0.40;;;10.60;99.90;;;;;;4966233;28;20051;-77
2023/01/13 04:28:15;;;;;;;0.60;0.28;;;10.60;99.90;;;;;;4954714;28;20090;-77
2023/01/13 04:30:42;;;;;;;0.70;0.32;;;10.60;99.90;;;;;;4954781;28;20055;-77
2023/01/13 04:33:10;;;;;;;2.05;0.60;;;10.60;99.90;;;;;;4969732;28;20050;-76
2023/01/13 04:35:37;;;;;;;1.05;0.30;;;10.60;99.90;;;;;;4980403;28;20066;-76
2023/01/13 04:38:15;;;;;;;0.47;0.30;;;10.60;99.90;;;;;;4979973;28;20039;-77
2023/01/13 04:40:43;;;;;;;1.77;0.93;;;10.60;99.90;;;;;;4981120;28;20061;-75
2023/01/13 04:43:09;;;;;;;0.28;0.25;;;10.60;99.90;;;;;;4970876;28;20523;-77
2023/01/13 04:45:36;;;;;;;0.32;0.32;;;10.60;99.90;;;;;;4954495;28;20055;-76
2023/01/13 04:48:04;;;;;;;1.73;0.47;;;10.50;99.90;;;;;;4954470;28;20062;-76
2023/01/13 04:50:30;;;;;;;0.85;0.20;;;10.60;99.90;;;;;;4954332;28;20498;-76
2023/01/13 04:52:57;;;;;;;1.02;0.30;;;10.50;99.90;;;;;;4954127;28;20147;-76
2023/01/13 04:55:24;;;;;;;2.17;1.20;;;10.60;99.90;;;;;;4954298;28;20051;-77
2023/01/13 04:57:51;;;;;;;1.75;0.30;;;10.50;99.90;;;;;;4954117;29;20544;-76
2023/01/13 05:00:19;;;;;;;0.88;0.30;;;10.50;99.90;;;;;;4964720;28;20058;-76
2023/01/13 05:02:49;;;;;;;0.40;0.40;;;10.50;99.90;;;;;;4954156;28;20059;-76
2023/01/13 05:05:16;;;;;;;0.20;0.20;;;10.50;99.90;;;;;;4953023;29;20062;-76
2023/01/13 05:07:43;;;;;;;1.10;0.30;;;10.50;99.90;;;;;;4952597;28;20070;-77
2023/01/13 05:10:10;;;;;;;1.55;0.47;;;10.50;99.90;;;;;;4954129;28;20523;-77
2023/01/13 05:18:08;;;;;;;0.10;0.10;;;10.60;99.90;;;;;;4953099;29;20389;-77
2023/01/13 05:20:35;;;;;;;0.30;0.30;;;10.60;99.90;;;;;;4953770;28;20051;-77
2023/01/13 05:25:48;;;;;;;0.20;0.20;;;10.50;99.90;;;;;;4953581;29;20047;-76
2023/01/13 05:28:15;;;;;;;0.95;0.30;;;10.50;99.90;;;;;;4953877;28;20054;-77
2023/01/13 05:30:44;;;;;;;0.32;0.13;;;10.40;99.90;;;;;;4953964;28;20479;-77
2023/01/13 05:33:13;;;;;;;0.28;0.20;;;10.40;99.90;;;;;;4966698;28;20071;-77
2023/01/13 05:35:42;;;;;;;3.17;0.30;;;10.40;99.90;;;;;;4953759;28;20053;-76
2023/01/13 05:38:10;;;;;;;0.47;0.30;;;10.40;99.90;;;;;;4952882;29;20053;-76
2023/01/13 05:43:25;;;;;;;1.92;0.40;;;10.50;99.90;;;;;;4953152;29;20620;-76
2023/01/13 05:45:52;;;;;;;2.47;0.82;;;10.50;99.90;;;;;;4961535;28;20066;-78
2023/01/13 05:48:20;;;;;;;1.10;0.22;;;10.50;99.90;;;;;;4957869;28;20062;-76
2023/01/13 05:50:48;;;;;;;0.30;0.30;;;10.50;99.90;;;;;;4953621;28;20413;-76
2023/01/13 05:53:16;;;;;;;0.63;0.20;;;10.50;99.90;;;;;;4950649;29;20047;-75
2023/01/13 05:55:44;;;;;;;1.02;0.25;;;10.50;99.90;;;;;;4953845;28;20053;-76
2023/01/13 05:58:13;;;;;;;1.50;0.30;;;10.50;99.90;;;;;;4952990;28;20508;-76
2023/01/13 06:00:41;;;;;;;1.33;0.43;;;10.50;99.90;;;;;;4953479;28;20047;-76
2023/01/13 06:03:08;;;;;;;0.75;0.45;;;10.50;99.90;;;;;;4953183;29;20061;-76
2023/01/13 06:05:36;;;;;;;0.20;0.20;;;10.50;99.90;;;;;;4952278;29;20059;-77
2023/01/13 06:08:05;;;;;;;3.38;0.40;;;10.50;99.90;;;;;;4950452;29;20059;-76
2023/01/13 06:10:32;;;;;;;0.95;0.30;;;10.50;99.90;;;;;;4953278;28;20135;-76
2023/01/13 06:12:59;;;;;;;0.73;0.40;;;10.60;99.90;;;;;;4951889;29;20051;-76
2023/01/13 06:15:26;;;;;;;1.20;0.38;;;10.50;99.90;;;;;;4948784;29;20051;-76
2023/01/13 06:17:53;;;;;;;0.20;0.20;;;10.50;99.90;;;;;;4953131;28;20048;-76
2023/01/13 06:20:19;;;;;;;3.03;0.30;;;10.50;99.90;;;;;;4955257;28;20055;-76
2023/01/13 06:22:48;;;;;;;0.77;0.30;;;10.50;99.90;;;;;;4957956;28;20066;-78
2023/01/13 06:25:28;;;;;;;1.08;0.20;;;10.60;99.90;;;;;;4957003;28;20106;-76
2023/01/13 06:27:59;;;;;;;0.30;0.30;;;10.50;99.90;;;;;;4956732;29;20058;-76
2023/01/13 06:30:29;;;;;;;0.22;0.20;;;10.50;99.90;;;;;;4957029;28;20519;-76
2023/01/13 06:32:59;;;;;;;0.55;0.22;;;10.50;99.90;;;;;;4956602;28;20086;-76
2023/01/13 06:35:31;;;;;;;0.20;0.20;;;10.50;99.90;;;;;;4953627;29;20047;-76
2023/01/13 06:38:01;;;;;;;0.75;0.20;;;10.50;99.90;;;;;;4956902;28;20282;-76
2023/01/13 06:40:28;;;;;;;0.90;0.30;;;10.50;99.90;;;;;;4956800;28;20051;-76
2023/01/13 06:43:14;;;;;;;1.23;0.30;;;10.50;99.90;;;;;;4956362;28;20540;-76
2023/01/13 06:45:46;;;;;;;0.65;0.38;;;10.50;99.90;;;;;;4955702;29;20556;-76
2023/01/13 06:48:14;;;;;;;0.90;0.32;;;10.60;99.90;;;;;;4956866;28;20077;-77
2023/01/13 06:50:41;;;;;;;0.90;0.38;;;10.60;99.90;;;;;;4956206;28;20533;-76
2023/01/13 06:53:08;;;;;;;0.68;0.50;;;10.60;99.90;;;;;;4956127;28;20047;-76
2023/01/13 06:55:35;;;;;;;0.35;0.35;;;10.60;99.90;;;;;;4956267;28;20069;-76
2023/01/13 06:58:02;;;;;;;0.75;0.40;;;10.60;99.90;;;;;;4956558;28;20043;-76
2023/01/13 07:00:31;;;;;;;0.40;0.40;;;10.50;99.90;;;;;;4953209;29;20079;-77
2023/01/13 07:03:12;;;;;;;0.63;0.30;;;10.50;99.90;;;;;;4955558;28;20086;-76
2023/01/13 07:05:40;;;;;;;0.20;0.20;;;10.50;99.90;;;;;;4952959;29;20130;-76
2023/01/13 07:08:08;;;;;;;1.92;0.40;;;10.50;99.90;;;;;;4956073;28;20897;-76
2023/01/13 07:10:35;;;;;;;0.20;0.20;;;10.60;99.90;;;;;;4955811;28;20063;-76
2023/01/13 07:15:57;;;;;;;1.02;0.60;;;10.60;99.90;;;;;;4955553;29;20500;-76
2023/01/13 07:18:26;;;;;;;0.65;0.47;;;10.60;99.90;;;;;;4956632;28;20789;-78
2023/01/13 07:21:11;;;;;;;0.75;0.30;;;10.60;99.90;;;;;;4955404;28;20402;-76
2023/01/13 07:23:40;;;;;;;1.88;1.10;;;10.60;99.90;;;;;;4955053;29;20051;-76
2023/01/13 07:26:10;;;;;;;0.73;0.63;;;10.60;99.90;;;;;;4955350;28;20149;-76
2023/01/13 07:28:37;;;;;;;2.17;1.42;;;10.60;99.90;;;;;;4955439;29;20508;-76
2023/01/13 07:31:11;;;;;;;0.63;0.60;;;10.60;99.90;;;;;;4955628;28;20047;-76
2023/01/13 07:33:37;;;;;;;0.80;0.52;;;10.60;99.90;;;;;;4953123;29;20055;-76
2023/01/13 07:36:05;;;;;;;0.88;0.50;;;10.60;99.90;;;;;;4955529;28;20047;-76
2023/01/13 07:38:32;;;;;;;1.00;0.63;;;10.60;99.90;;;;;;4955708;28;20043;-76
2023/01/13 07:43:30;;;;;;;0.40;0.40;;;10.60;99.90;;;;;;4955643;28;20134;-76
2023/01/13 07:43:50;;;;;;;1.98;0.98;;;10.70;99.90;;;;;;4953981;29;20055;-76
2023/01/13 07:46:18;;;;;;;1.85;0.50;;;10.70;99.90;;;;;;4955636;28;20130;-76
2023/01/13 07:48:46;;;;;;;2.42;0.47;;;10.70;99.90;;;;;;4955637;28;20094;-76
2023/01/13 07:51:12;;;;;;;2.22;0.90;;;10.70;99.90;;;;;;4955505;28;20453;-76
2023/01/13 07:53:39;;;;;;;1.25;0.60;;;10.70;99.90;;;;;;4955427;28;20453;-76
2023/01/13 07:56:07;;;;;;;1.08;0.47;;;10.80;99.90;;;;;;4955163;28;20497;-76
2023/01/13 07:58:35;;;;;;;0.40;0.38;;;10.70;99.90;;;;;;4955257;28;20044;-76
2023/01/13 08:01:10;;;;;;;0.30;0.30;;;10.80;99.90;;;;;;4955305;28;20516;-76
2023/01/13 08:03:39;;;;;;;0.30;0.30;;;10.80;99.90;;;;;;4952647;29;20142;-76
2023/01/13 08:06:06;;;;;;;0.60;0.40;;;10.80;99.90;;;;;;4955179;28;20066;-76
2023/01/13 08:08:33;;;;;;;0.40;0.38;;;10.80;99.90;;;;;;4953856;29;20130;-76
2023/01/13 08:11:01;;;;;;;0.40;0.30;;;10.80;99.90;;;;;;4955147;28;20071;-76
2023/01/13 08:13:27;;;;;;;1.85;0.60;;;10.70;99.90;;;;;;4955006;28;20043;-76
2023/01/13 08:16:05;;;;;;;1.75;0.60;;;10.70;99.90;;;;;;4955193;28;20062;-76
2023/01/13 08:18:34;;;;;;;0.85;0.50;;;10.70;99.90;;;;;;4955070;28;20051;-76
2023/01/13 08:21:03;;;;;;;2.03;0.52;;;10.70;99.90;;;;;;4954879;28;20051;-76
2023/01/13 08:23:30;;;;;;;3.17;1.10;;;10.70;99.90;;;;;;4954898;28;20058;-76
2023/01/13 08:26:05;;;;;;;1.75;0.40;;;10.70;99.90;;;;;;4954965;28;20145;-76
2023/01/13 08:28:31;;;;;;;0.40;0.30;;;10.70;99.90;;;;;;4953694;29;20055;-76
2023/01/13 08:31:00;;;;;;;0.22;0.20;;;10.60;99.90;;;;;;4954846;28;20075;-76
2023/01/13 08:33:28;;;;;;;1.65;0.35;;;10.60;99.90;;;;;;4954561;28;20130;-77
2023/01/13 08:35:55;;;;;;;0.75;0.55;;;10.60;99.90;;;;;;4954907;28;20051;-77
2023/01/13 08:38:22;;;;;;;2.15;0.40;;;10.60;99.90;;;;;;4954795;28;20126;-77
2023/01/13 08:40:48;;;;;;;1.08;0.32;;;10.60;99.90;;;;;;4955485;28;20051;-77
2023/01/13 08:43:15;;;;;;;0.80;0.50;;;10.60;99.90;;;;;;4954220;28;20062;-77
2023/01/13 08:45:42;;;;;;;1.13;0.40;;;10.60;99.90;;;;;;4968414;28;20062;-77
2023/01/13 08:48:09;;;;;;;0.98;0.57;;;10.60;99.90;;;;;;4958882;29;20051;-77
2023/01/13 08:50:36;;;;;;;0.85;0.30;;;10.50;99.90;;;;;;4955402;28;20052;-77
2023/01/13 08:53:02;;;;;;;2.95;0.40;;;10.50;99.90;;;;;;4954580;28;20053;-77
2023/01/13 08:55:29;;;;;;;2.20;0.50;;;10.60;99.90;;;;;;4955713;28;20055;-77
2023/01/13 08:57:56;;;;;;;0.63;0.40;;;10.60;99.90;;;;;;4957368;28;20067;-77
2023/01/13 09:00:41;;;;;;;1.20;0.40;;;10.60;99.90;;;;;;4957366;29;20419;-77
2023/01/13 09:03:07;;;;;;;1.38;0.40;;;10.60;99.90;;;;;;4957825;29;20062;-77
2023/01/13 09:05:34;;;;;;;1.23;0.40;;;10.60;99.90;;;;;;4956352;28;20051;-77
2023/01/13 09:08:01;;;;;;;1.40;0.60;;;10.60;99.90;;;;;;4958429;28;20055;-77
2023/01/13 09:10:28;;;;;;;0.82;0.60;;;10.60;99.90;;;;;;4955409;28;20055;-77
2023/01/13 09:13:13;;;;;;;0.73;0.45;;;10.60;99.90;;;;;;4953956;28;20043;-77
2023/01/13 09:15:41;;;;;;;1.73;1.02;;;10.60;99.90;;;;;;4956809;29;20086;-77
2023/01/13 09:18:08;;;;;;;1.40;0.65;;;10.70;99.90;;;;;;4958710;28;20280;-78
2023/01/13 09:20:35;;;;;;;0.38;0.38;;;10.70;99.90;;;;;;4958254;28;20085;-77
2023/01/13 09:23:02;;;;;;;2.10;0.50;;;10.70;99.90;;;;;;4956449;29;20111;-77
2023/01/13 09:25:29;;;;;;;1.23;0.47;;;10.70;99.90;;;;;;4959225;28;20055;-77
2023/01/13 09:27:56;;;;;;;0.95;0.40;;;10.80;99.90;;;;;;4960012;28;20055;-77
2023/01/13 09:30:24;;;;;;;2.17;0.55;;;10.80;99.90;;;;;;4959219;29;20110;-77
2023/01/13 09:34:58;;;;;;;0.93;0.63;;;10.80;99.90;;;;;;4959802;28;20051;-77
2023/01/13 09:35:37;;;;;;;4.90;0.50;;;10.80;99.90;;;;;;4960623;28;20110;-77
2023/01/13 09:38:05;;;;;;;0.68;0.30;;;10.80;99.90;;;;;;4961089;28;20047;-77
2023/01/13 09:40:31;;;;;;;4.95;0.60;;;10.90;99.90;;;;;;4959892;28;20047;-77
2023/01/13 09:49:04;;;;;;;2.55;0.80;;;10.90;99.90;;;;;;4978209;28;20043;-76
2023/01/13 09:51:40;;;;;;;1.75;0.77;;;10.90;99.90;;;;;;4979775;28;20039;-77
2023/01/13 09:54:38;;;;;;;1.90;0.88;;;10.90;99.90;;;;;;4955462;28;20050;-77
2023/01/13 09:57:14;;;;;;;1.90;1.70;;;10.90;99.90;;;;;;4953270;29;20214;-76
2023/01/13 09:59:42;;;;;;;1.85;1.30;;;10.90;99.90;;;;;;4953049;29;20110;-77
2023/01/13 10:02:40;;;;;;;1.60;0.77;;;10.80;99.90;;;;;;4954157;28;20606;-76
2023/01/13 10:05:44;;;;;;;2.08;0.80;;;10.80;99.90;;;;;;4949266;29;20138;-76
2023/01/13 10:08:20;;;;;;;2.10;0.85;;;10.80;99.90;;;;;;4953580;29;20462;-76
2023/01/13 10:10:50;;;;;;;1.70;0.70;;;10.80;99.90;;;;;;4952996;29;20047;-77
2023/01/13 10:13:24;;;;;;;1.43;0.80;;;10.80;99.90;;;;;;4950209;28;20044;-79
2023/01/13 10:16:10;;;;;;;1.38;0.70;;;10.80;99.90;;;;;;4952962;29;20552;-76
2023/01/13 10:18:40;;;;;;;1.48;1.00;;;10.80;99.90;;;;;;4953294;29;20048;-76
2023/01/13 10:21:45;;;;;;;0.30;0.30;;;10.90;99.90;;;;;;4947471;29;20065;-76
2023/01/13 10:24:50;;;;;;;0.82;0.40;;;10.90;99.90;;;;;;4952408;28;20471;-77
2023/01/13 10:27:40;;;;;;;1.77;0.60;;;10.90;99.90;;;;;;4946332;29;20047;-77
2023/01/13 10:30:19;;;;;;;1.75;0.55;;;11.00;99.90;;;;;;4953209;28;20083;-77
2023/01/13 10:32:55;;;;;;;0.60;0.40;;;11.00;99.90;;;;;;4952877;29;20497;-76
2023/01/13 10:35:54;;;;;;;1.63;0.40;;;11.00;99.90;;;;;;4952853;28;20102;-77
2023/01/13 10:38:36;;;;;;;0.90;0.38;;;11.00;99.90;;;;;;4952338;29;20050;-77
2023/01/13 10:41:16;;;;;;;3.17;0.50;;;11.00;99.90;;;;;;4951197;29;20055;-77
2023/01/13 10:43:44;;;;;;;;;;;11.00;99.90;;;;;;4952359;29;20047;-77
2023/01/13 10:46:15;;;;;;;2.53;0.68;;;10.90;99.90;;;;;;4950324;29;19929;-77
2023/01/13 10:48:45;;;;;;;5.30;0.45;;;10.90;99.90;;;;;;4952819;28;20055;-77
2023/01/13 10:51:14;;;;;;;;;;;10.80;99.90;;;;;;4953208;28;20090;-77
2023/01/13 10:54:11;;;;;;;1.73;0.88;;;10.80;99.90;;;;;;4952747;29;19929;-77
2023/01/13 10:56:43;;;;;;;1.83;0.60;;;10.80;99.90;;;;;;4953041;28;20151;-77
2023/01/13 10:59:21;;;;;;;1.13;0.40;;;10.80;99.90;;;;;;4950849;29;20051;-77
2023/01/13 11:01:55;;;;;;;1.27;0.63;;;10.90;99.90;;;;;;4951885;29;20061;-76
2023/01/13 11:04:28;;;;;;;1.52;0.35;;;10.90;99.90;;;;;;4951744;29;20051;-77
2023/01/13 11:06:55;;;;;;;2.50;0.80;;;10.90;99.90;;;;;;4954332;28;20077;-77
2023/01/13 11:09:25;;;;;;;0.95;0.40;;;10.90;99.90;;;;;;4956206;28;20051;-77
2023/01/13 11:11:55;;;;;;;1.40;0.90;;;10.80;99.90;;;;;;4955216;29;20051;-76
2023/01/13 11:14:40;;;;;;;5.45;1.65;;;10.80;99.90;;;;;;4956067;28;20044;-77
2023/01/13 11:17:39;;;;;;;3.67;1.05;;;10.70;99.90;;;;;;4956319;28;20055;-77
2023/01/13 11:20:29;;;;;;;3.92;0.93;;;10.70;99.90;;;;;;4952810;29;20105;-77
2023/01/13 11:23:17;;;;;;;1.95;0.90;;;10.60;99.90;;;;;;4952999;29;20549;-79
2023/01/13 11:25:49;;;;;;;2.10;0.93;;;10.50;99.90;;;;;;4956571;29;20126;-77
2023/01/13 11:28:28;;;;;;;1.95;0.50;;;10.60;99.90;;;;;;4957068;29;20051;-77
2023/01/13 11:31:28;;;;;;;2.17;0.50;;;10.60;99.90;;;;;;4957631;29;20055;-77
2023/01/13 11:34:18;;;;;;;3.35;0.68;;;10.50;99.90;;;;;;4937983;28;20572;-77
2023/01/13 11:36:54;;;;;;;1.98;0.70;;;10.60;99.90;;;;;;4957095;29;20047;-77
2023/01/13 11:39:28;;;;;;;0.85;0.45;;;10.60;99.90;;;;;;4956947;28;20132;-77
2023/01/13 11:42:19;;;;;;;2.45;0.90;;;10.70;99.90;;;;;;4957291;28;20138;-77
2023/01/13 11:45:18;;;;;;;1.88;0.70;;;10.80;99.90;;;;;;4956625;28;20536;-77
2023/01/13 11:47:49;;;;;;;2.22;0.80;;;10.80;99.90;;;;;;4956143;29;20093;-77
2023/01/13 11:50:32;;;;;;;3.53;0.80;;;10.80;99.90;;;;;;4956150;29;20058;-77
2023/01/13 11:53:42;;;;;;;2.28;0.70;;;10.90;99.90;;;;;;4956347;29;20067;-77
2023/01/13 11:56:51;;;;;;;3.20;0.70;;;10.90;99.90;;;;;;4956106;29;20054;-77
2023/01/13 11:59:29;;;;;;;2.20;0.60;;;11.00;99.90;;;;;;4957484;29;20047;-77
2023/01/13 12:02:35;;;;;;;1.88;0.60;;;11.00;99.90;;;;;;4960029;28;20524;-77
2023/01/13 12:05:35;;;;;;;3.13;0.73;;;11.10;99.90;;;;;;4954424;29;20137;-77
2023/01/13 12:08:07;;;;;;;3.83;1.55;;;11.10;99.90;;;;;;4961422;28;20053;-77
2023/01/13 12:10:43;;;;;;;3.95;1.48;;;11.10;99.90;;;;;;4962157;28;20051;-77
2023/01/13 12:13:27;;;;;;;3.75;0.95;;;11.10;99.90;;;;;;4960222;28;20127;-77
2023/01/13 12:16:01;;;;;;;2.10;1.20;;;11.00;99.90;;;;;;4957767;29;20047;-77
2023/01/13 12:19:00;;;;;;;3.30;0.90;;;10.90;99.90;;;;;;4954080;28;20047;-77
2023/01/13 12:21:48;;;;;;;2.72;1.02;;;10.90;99.90;;;;;;4953743;29;20058;-77
2023/01/13 12:24:28;;;;;;;4.38;1.17;;;10.90;99.90;;;;;;4953285;29;20506;-77
2023/01/13 12:27:03;;;;;;;2.35;1.27;;;10.90;99.90;;;;;;4954946;29;20428;-77
2023/01/13 12:29:33;;;;;;;5.13;1.42;;;10.90;99.90;;;;;;4960343;28;20077;-77
2023/01/13 12:32:03;;;;;;;2.58;0.90;;;10.90;99.90;;;;;;4954082;29;20397;-77
2023/01/13 12:34:30;;;;;;;;;;;11.00;99.90;;;;;;4954531;28;20048;-77
2023/01/13 12:37:06;;;;;;;4.07;0.90;;;11.10;99.90;;;;;;4954654;29;19923;-77
2023/01/13 12:39:44;;;;;;;3.75;1.42;;;11.20;99.90;;;;;;4954033;29;20686;-77
2023/01/13 12:45:08;;;;;;;1.48;0.63;;;11.30;99.90;;;;;;4953189;29;20062;-76
2023/01/13 12:47:40;;;;;;;2.63;0.90;;;11.20;99.90;;;;;;4954571;28;20051;-77
2023/01/13 12:50:22;;;;;;;3.88;1.10;;;11.30;99.90;;;;;;4954906;28;20051;-76
2023/01/13 12:52:51;;;;;;;4.35;1.05;;;11.40;99.90;;;;;;4953624;29;20098;-76
2023/01/13 12:55:24;;;;;;;3.80;1.10;;;11.50;99.90;;;;;;4952421;29;20051;-76
2023/01/13 12:58:24;;;;;;;7.43;2.38;;;11.50;99.90;;;;;;4954768;28;20047;-77
2023/01/13 13:00:58;;;;;;;2.40;1.10;;;11.60;99.90;;;;;;4950713;29;20063;-77
2023/01/13 13:03:27;;;;;;;4.32;1.35;;;11.60;99.90;;;;;;4953894;28;20520;-77
2023/01/13 13:05:55;;;;;;;2.92;1.00;;;11.60;99.90;;;;;;4954093;28;20141;-77
2023/01/13 13:08:44;;;;;;;4.18;0.88;;;11.70;99.90;;;;;;4954139;28;20061;-76
2023/01/13 13:14:00;;;;;;;1.92;0.95;;;11.60;99.90;;;;;;4953066;29;20047;-77
2023/01/13 13:16:28;;;;;;;4.60;1.20;;;11.60;99.90;;;;;;4948998;29;20528;-76
2023/01/13 13:19:16;;;;;;;4.15;1.13;;;11.60;99.90;;;;;;4954112;28;20053;-77
2023/01/13 13:22:11;;;;;;;2.30;0.70;;;11.60;99.90;;;;;;4953970;29;20082;-77
2023/01/13 13:25:02;;;;;;;1.52;0.82;;;11.40;99.90;;;;;;4953609;28;20058;-77
2023/01/13 13:28:08;;;;;;;3.67;1.15;;;11.30;99.90;;;;;;4953851;28;20477;-77
2023/01/13 13:30:38;;;;;;;6.68;1.10;;;11.00;99.90;;;;;;4952339;29;20058;-77
2023/01/13 13:33:33;;;;;;;1.95;0.90;;;10.70;99.90;;;;;;4950135;29;20130;-76
2023/01/13 13:36:18;;;;;;;2.47;1.10;;;10.30;99.90;;;;;;4952665;29;20052;-76
2023/01/13 13:47:36;;;;;;;2.85;1.13;;;9.80;99.90;;;;;;4953080;29;20069;-77
2023/01/13 13:50:19;;;;;;;3.83;1.98;;;9.80;99.90;;;;;;4948838;29;20090;-76
2023/01/13 13:52:57;;;;;;;2.75;1.40;;;9.80;99.90;;;;;;4953306;28;20051;-77
2023/01/13 13:55:26;;;;;;;4.65;1.75;;;9.70;99.90;;;;;;4949847;29;20445;-76
2023/01/13 13:57:56;;;;;;;6.40;1.45;;;9.70;99.90;;;;;;4953418;28;20052;-77
2023/01/13 14:00:29;;;;;;;4.30;1.48;;;9.70;99.90;;;;;;4953449;28;20082;-76
2023/01/13 14:02:59;;;;;;;3.58;1.17;;;9.70;99.90;;;;;;4943559;29;20058;-76
2023/01/13 14:05:36;;;;;;;3.15;0.88;;;9.70;99.90;;;;;;4951676;29;20122;-77
2023/01/13 14:08:15;;;;;;;2.70;0.65;;;9.60;99.90;;;;;;4952595;29;20051;-77
2023/01/13 14:10:43;;;;;;;0.98;0.70;;;9.40;99.90;;;;;;4952222;29;20051;-77